createdAt,value
2023-09-23T00:00:58.728Z,98.72
2023-09-23T00:03:27.280Z,99.13
2023-09-23T00:05:54.597Z,98.55
2023-09-23T00:08:21.814Z,99.07
2023-09-23T00:10:51.931Z,98.49
2023-09-23T00:13:21.987Z,99.88
2023-09-23T00:15:52.482Z,97.47
2023-09-23T00:18:19.753Z,97.91
2023-09-23T00:20:47.803Z,96.39
2023-09-23T00:23:15.170Z,95.33
2023-09-23T00:25:43.141Z,95.35
2023-09-23T00:28:12.448Z,92.01
2023-09-23T00:30:39.736Z,90.10
2023-09-23T00:33:11.441Z,81.00
2023-09-23T00:35:38.593Z,75.18
2023-09-23T00:38:05.876Z,75.34
2023-09-23T00:40:39.608Z,74.96
2023-09-23T00:43:07.661Z,70.42
2023-09-23T00:45:35.616Z,74.10
2023-09-23T00:48:03.528Z,72.93
2023-09-23T00:50:31.115Z,74.12
2023-09-23T00:52:59.812Z,77.81
2023-09-23T00:55:32.021Z,81.65
2023-09-23T00:58:02.664Z,83.76
2023-09-23T01:00:32.014Z,85.03
2023-09-23T01:03:00.602Z,88.74
2023-09-23T01:05:29.658Z,89.23
2023-09-23T01:08:01.055Z,89.49
2023-09-23T01:10:29.473Z,90.22
2023-09-23T01:12:57.727Z,92.32
2023-09-23T01:15:26.847Z,95.93
2023-09-23T01:17:55.080Z,93.33
2023-09-23T01:20:22.813Z,93.91
2023-09-23T01:22:50.289Z,95.40
2023-09-23T01:25:20.544Z,98.72
2023-09-23T01:27:47.763Z,98.68
2023-09-23T01:30:15.004Z,100.00
2023-09-23T01:32:46.911Z,98.21
2023-09-23T01:35:17.913Z,99.07
2023-09-23T01:37:48.217Z,97.23
2023-09-23T01:40:18.787Z,99.73
2023-09-23T01:42:50.015Z,100.00
2023-09-23T01:45:18.591Z,100.00
2023-09-23T01:47:46.302Z,100.00
2023-09-23T01:50:14.821Z,100.00
2023-09-23T01:52:42.224Z,100.00
2023-09-23T01:55:13.238Z,100.00
2023-09-23T01:57:40.818Z,100.00
2023-09-23T02:00:09.234Z,100.00
2023-09-23T02:02:40.049Z,100.00
2023-09-23T02:05:07.977Z,100.00
2023-09-23T02:07:35.220Z,100.00
2023-09-23T02:10:02.670Z,100.00
2023-09-23T02:12:30.123Z,100.00
2023-09-23T02:14:57.445Z,99.00
2023-09-23T02:17:25.052Z,100.00
2023-09-23T02:19:54.854Z,100.00
2023-09-23T02:22:22.038Z,96.78
2023-09-23T02:24:49.718Z,98.61
2023-09-23T02:27:17.602Z,100.00
2023-09-23T02:29:45.316Z,100.00
2023-09-23T02:32:12.534Z,100.00
2023-09-23T02:34:41.054Z,100.00
2023-09-23T02:37:08.189Z,100.00
2023-09-23T02:39:35.575Z,100.00
2023-09-23T02:42:05.663Z,100.00
2023-09-23T02:44:32.893Z,100.00
2023-09-23T02:46:59.996Z,100.00
2023-09-23T02:49:27.236Z,100.00
2023-09-23T02:51:54.827Z,100.00
2023-09-23T02:54:21.979Z,100.00
2023-09-23T02:56:49.530Z,100.00
2023-09-23T02:59:22.615Z,100.00
2023-09-23T03:01:53.052Z,100.00
2023-09-23T03:04:24.557Z,100.00
2023-09-23T03:07:02.130Z,100.00
2023-09-23T03:09:33.762Z,100.00
2023-09-23T03:12:02.097Z,100.00
2023-09-23T03:14:43.720Z,98.94
2023-09-23T03:17:13.929Z,100.00
2023-09-23T03:19:41.139Z,100.00
2023-09-23T03:22:08.961Z,100.00
2023-09-23T03:24:36.312Z,100.00
2023-09-23T03:27:03.728Z,99.92
2023-09-23T03:29:31.478Z,100.00
2023-09-23T03:32:01.254Z,100.00
2023-09-23T03:34:28.573Z,100.00
2023-09-23T03:36:56.024Z,100.00
2023-09-23T03:39:23.693Z,99.85
2023-09-23T03:41:50.872Z,100.00
2023-09-23T03:44:18.325Z,100.00
2023-09-23T03:46:49.175Z,100.00
2023-09-23T03:49:16.344Z,99.83
2023-09-23T03:51:44.097Z,98.69
2023-09-23T03:54:12.938Z,99.39
2023-09-23T03:56:41.389Z,98.98
2023-09-23T03:59:08.594Z,98.95
2023-09-23T04:01:37.720Z,98.82
2023-09-23T04:04:07.404Z,97.68
2023-09-23T04:06:35.177Z,97.27
2023-09-23T04:09:08.651Z,98.36
2023-09-23T04:11:36.399Z,99.79
2023-09-23T04:14:03.794Z,99.21
2023-09-23T04:16:31.781Z,99.40
2023-09-23T04:18:59.002Z,100.00
2023-09-23T04:21:27.065Z,99.49
2023-09-23T04:23:54.179Z,100.00
2023-09-23T04:26:23.042Z,100.00
2023-09-23T04:28:53.323Z,100.00
2023-09-23T04:31:20.774Z,100.00
2023-09-23T04:33:48.736Z,100.00
2023-09-23T04:36:16.062Z,100.00
2023-09-23T04:38:44.886Z,100.00
2023-09-23T04:41:13.185Z,100.00
2023-09-23T04:43:41.221Z,100.00
2023-09-23T04:46:09.336Z,100.00
2023-09-23T04:48:36.548Z,100.00
2023-09-23T04:51:04.369Z,100.00
2023-09-23T04:53:31.600Z,100.00
2023-09-23T04:55:59.833Z,100.00
2023-09-23T04:58:26.977Z,100.00
2023-09-23T05:00:55.418Z,100.00
2023-09-23T05:03:24.480Z,100.00
2023-09-23T05:05:51.741Z,100.00
2023-09-23T05:08:19.003Z,100.00
2023-09-23T05:10:46.433Z,100.00
2023-09-23T05:13:18.205Z,100.00
2023-09-23T05:15:45.412Z,100.00
2023-09-23T05:18:12.882Z,100.00
2023-09-23T05:20:41.500Z,100.00
2023-09-23T05:23:08.921Z,100.00
2023-09-23T05:25:38.125Z,100.00
2023-09-23T05:28:10.374Z,100.00
2023-09-23T05:30:38.184Z,100.00
2023-09-23T05:33:05.575Z,100.00
2023-09-23T05:35:33.070Z,100.00
2023-09-23T05:38:01.067Z,100.00
2023-09-23T05:40:28.995Z,100.00
2023-09-23T05:42:56.829Z,100.00
2023-09-23T05:45:25.390Z,100.00
2023-09-23T05:47:53.463Z,100.00
2023-09-23T05:50:22.355Z,100.00
2023-09-23T05:52:54.513Z,100.00
2023-09-23T05:55:21.939Z,100.00
2023-09-23T05:57:50.426Z,100.00
2023-09-23T06:00:18.512Z,100.00
2023-09-23T06:02:46.482Z,100.00
2023-09-23T06:05:15.116Z,100.00
2023-09-23T06:07:42.798Z,100.00
2023-09-23T06:10:12.106Z,100.00
2023-09-23T06:12:39.498Z,100.00
2023-09-23T06:15:06.950Z,100.00
2023-09-23T06:17:34.253Z,100.00
2023-09-23T06:20:01.941Z,100.00
2023-09-23T06:22:29.293Z,100.00
2023-09-23T06:24:56.558Z,99.92
2023-09-23T06:27:24.028Z,99.46
2023-09-23T06:29:52.803Z,99.00
2023-09-23T06:32:20.155Z,99.64
2023-09-23T06:34:47.340Z,94.47
2023-09-23T06:37:14.899Z,87.82
2023-09-23T06:39:42.205Z,84.80
2023-09-23T06:42:09.377Z,81.23
2023-09-23T06:44:36.667Z,80.62
2023-09-23T06:47:04.057Z,77.00
2023-09-23T06:49:31.273Z,74.73
2023-09-23T06:51:58.426Z,72.67
2023-09-23T06:54:26.058Z,74.79
2023-09-23T06:56:56.168Z,76.71
2023-09-23T06:59:23.538Z,79.09
2023-09-23T07:01:50.832Z,75.57
2023-09-23T07:04:18.871Z,75.57
2023-09-23T07:06:46.178Z,77.74
2023-09-23T07:09:14.059Z,77.38
2023-09-23T07:11:41.389Z,70.16
2023-09-23T07:14:08.604Z,68.41
2023-09-23T07:16:35.744Z,74.71
2023-09-23T07:19:02.953Z,76.01
2023-09-23T07:21:30.448Z,80.40
2023-09-23T07:23:58.234Z,82.45
2023-09-23T07:26:25.476Z,81.36
2023-09-23T07:28:52.772Z,76.17
2023-09-23T07:31:20.009Z,68.40
2023-09-23T07:33:47.311Z,63.88
2023-09-23T07:36:15.121Z,62.36
2023-09-23T07:38:42.581Z,61.96
2023-09-23T07:41:09.770Z,60.72
2023-09-23T07:43:39.798Z,58.80
2023-09-23T07:46:07.581Z,59.36
2023-09-23T07:48:35.258Z,57.87
2023-09-23T07:51:02.554Z,56.79
2023-09-23T07:53:29.872Z,62.31
2023-09-23T07:55:57.319Z,58.51
2023-09-23T07:58:24.642Z,58.23
2023-09-23T08:00:51.817Z,59.19
2023-09-23T08:03:19.079Z,58.54
2023-09-23T08:05:46.507Z,59.14
2023-09-23T08:08:13.813Z,60.07
2023-09-23T08:10:40.994Z,59.60
2023-09-23T08:13:08.165Z,56.11
2023-09-23T08:15:35.315Z,56.58
2023-09-23T08:18:03.409Z,55.54
2023-09-23T08:20:30.806Z,54.26
2023-09-23T08:22:59.570Z,54.20
2023-09-23T08:25:27.268Z,52.11
2023-09-23T08:27:58.156Z,53.53
2023-09-23T08:30:26.184Z,52.11
2023-09-23T08:32:54.419Z,51.72
2023-09-23T08:35:21.829Z,52.41
2023-09-23T08:37:49.611Z,51.33
2023-09-23T08:40:20.358Z,49.15
2023-09-23T08:42:51.503Z,49.90
2023-09-23T08:45:21.234Z,50.17
2023-09-23T08:47:48.603Z,50.47
2023-09-23T08:50:16.732Z,50.85
2023-09-23T08:52:44.825Z,48.38
2023-09-23T08:55:12.785Z,48.07
2023-09-23T08:57:40.434Z,47.51
2023-09-23T09:00:11.524Z,46.56
2023-09-23T09:02:38.745Z,48.71
2023-09-23T09:05:06.166Z,47.64
2023-09-23T09:07:34.164Z,45.87
2023-09-23T09:10:01.652Z,47.56
2023-09-23T09:12:56.464Z,46.59
2023-09-23T09:15:25.659Z,46.20
2023-09-23T09:17:52.950Z,45.54
2023-09-23T09:20:20.147Z,44.74
2023-09-23T09:22:47.325Z,44.95
2023-09-23T09:25:15.177Z,45.98
2023-09-23T09:27:43.397Z,46.69
2023-09-23T09:30:13.824Z,47.16
2023-09-23T09:32:43.311Z,44.80
2023-09-23T09:35:13.765Z,45.11
2023-09-23T09:37:43.185Z,42.80
2023-09-23T09:40:12.451Z,43.47
2023-09-23T09:42:40.998Z,42.90
2023-09-23T09:45:11.072Z,42.24
2023-09-23T09:47:39.799Z,42.34
2023-09-23T09:50:08.751Z,42.66
2023-09-23T09:52:36.769Z,42.45
2023-09-23T09:55:05.454Z,43.22
2023-09-23T09:57:33.047Z,43.15
2023-09-23T10:00:34.802Z,43.54
2023-09-23T10:03:09.800Z,41.92
2023-09-23T10:05:52.477Z,41.83
2023-09-23T10:08:26.807Z,39.88
2023-09-23T10:11:04.093Z,39.93
2023-09-23T10:13:32.926Z,41.02
2023-09-23T10:16:03.794Z,41.43
2023-09-23T10:18:34.890Z,40.44
2023-09-23T10:21:03.499Z,41.22
2023-09-23T10:23:40.225Z,41.49
2023-09-23T10:26:19.939Z,42.72
2023-09-23T10:29:00.527Z,41.53
2023-09-23T10:31:32.034Z,41.12
2023-09-23T10:34:04.328Z,39.80
2023-09-23T10:36:31.663Z,39.97
2023-09-23T10:38:59.864Z,40.36
2023-09-23T10:41:36.808Z,39.95
2023-09-23T10:44:04.443Z,39.98
2023-09-23T10:46:32.217Z,40.13
2023-09-23T10:49:01.173Z,40.43
2023-09-23T10:51:28.847Z,38.99
2023-09-23T10:53:57.021Z,38.42
2023-09-23T10:56:26.090Z,38.37
2023-09-23T10:58:53.880Z,38.59
2023-09-23T11:01:23.948Z,39.70
2023-09-23T11:03:52.836Z,37.57
2023-09-23T11:06:20.174Z,37.82
2023-09-23T11:08:47.759Z,38.21
2023-09-23T11:11:15.119Z,39.16
2023-09-23T11:13:42.272Z,39.31
2023-09-23T11:16:10.723Z,39.45
2023-09-23T11:18:38.781Z,39.77
2023-09-23T11:21:06.468Z,38.48
2023-09-23T11:23:35.124Z,38.37
2023-09-23T11:26:03.208Z,38.57
2023-09-23T11:28:31.120Z,38.73
2023-09-23T11:30:58.622Z,38.12
2023-09-23T11:33:28.813Z,38.62
2023-09-23T11:35:56.247Z,38.76
2023-09-23T11:38:23.385Z,39.92
2023-09-23T11:40:50.914Z,39.15
2023-09-23T11:43:18.031Z,40.60
2023-09-23T11:45:45.301Z,39.56
2023-09-23T11:48:13.320Z,39.08
2023-09-23T11:50:40.595Z,39.10
2023-09-23T11:53:07.853Z,39.32
2023-09-23T11:55:35.067Z,39.54
2023-09-23T11:58:02.266Z,39.44
2023-09-23T12:00:30.377Z,39.14
2023-09-23T12:02:58.224Z,39.59
2023-09-23T12:05:32.345Z,38.71
2023-09-23T12:08:00.902Z,39.14
2023-09-23T12:10:30.431Z,38.44
2023-09-23T12:13:03.651Z,38.20
2023-09-23T12:15:32.696Z,38.61
2023-09-23T12:18:00.139Z,37.96
2023-09-23T12:20:27.989Z,37.86
2023-09-23T12:22:55.233Z,37.56
2023-09-23T12:25:22.394Z,39.57
2023-09-23T12:27:49.686Z,38.31
2023-09-23T12:30:19.900Z,38.39
2023-09-23T12:32:47.312Z,37.63
2023-09-23T12:35:14.636Z,37.95
2023-09-23T12:37:42.020Z,37.89
2023-09-23T12:40:11.116Z,38.50
2023-09-23T12:42:38.427Z,38.43
2023-09-23T12:45:08.418Z,40.24
2023-09-23T12:47:53.126Z,39.42
2023-09-23T12:50:22.928Z,39.08
2023-09-23T12:52:50.223Z,37.86
2023-09-23T12:55:17.429Z,39.00
2023-09-23T12:57:44.597Z,39.38
2023-09-23T13:00:12.759Z,40.50
2023-09-23T13:02:40.231Z,39.98
2023-09-23T13:05:09.321Z,39.73
2023-09-23T13:07:37.445Z,39.55
2023-09-23T13:10:05.858Z,39.96
2023-09-23T13:12:33.180Z,41.04
2023-09-23T13:15:00.235Z,40.73
2023-09-23T13:17:27.408Z,40.20
2023-09-23T13:19:55.684Z,40.26
2023-09-23T13:22:23.156Z,39.83
2023-09-23T13:24:53.306Z,39.99
2023-09-23T13:27:21.897Z,39.69
2023-09-23T13:29:49.587Z,39.39
2023-09-23T13:32:18.704Z,38.92
2023-09-23T13:34:46.566Z,39.18
2023-09-23T13:37:14.120Z,38.87
2023-09-23T13:39:41.344Z,39.64
2023-09-23T13:42:09.389Z,39.21
2023-09-23T13:44:36.812Z,39.17
2023-09-23T13:47:04.070Z,38.51
2023-09-23T13:49:31.808Z,39.35
2023-09-23T13:51:59.097Z,38.47
2023-09-23T13:54:26.231Z,39.12
2023-09-23T13:56:53.356Z,39.58
2023-09-23T13:59:20.438Z,39.66
2023-09-23T14:01:47.684Z,39.58
2023-09-23T14:04:15.030Z,39.08
2023-09-23T14:06:42.443Z,39.81
2023-09-23T14:09:10.995Z,39.49
2023-09-23T14:11:38.294Z,39.94
2023-09-23T14:14:05.553Z,39.55
2023-09-23T14:16:33.318Z,39.67
2023-09-23T14:19:00.572Z,39.57
2023-09-23T14:21:27.880Z,39.58
2023-09-23T14:23:54.988Z,38.75
2023-09-23T14:26:22.349Z,40.03
2023-09-23T14:28:49.497Z,39.23
2023-09-23T14:31:16.705Z,39.40
2023-09-23T14:33:43.880Z,39.11
2023-09-23T14:36:11.608Z,39.31
2023-09-23T14:38:39.117Z,39.98
2023-09-23T14:41:06.490Z,40.20
2023-09-23T14:43:33.834Z,40.59
2023-09-23T14:46:01.023Z,40.83
2023-09-23T14:48:28.473Z,40.43
2023-09-23T14:50:55.720Z,40.94
2023-09-23T14:53:22.846Z,41.45
2023-09-23T14:55:50.477Z,42.20
2023-09-23T14:58:17.677Z,43.04
2023-09-23T15:00:45.084Z,42.36
2023-09-23T15:03:12.494Z,42.28
2023-09-23T15:05:39.921Z,42.35
2023-09-23T15:08:07.155Z,42.64
2023-09-23T15:10:34.478Z,43.13
2023-09-23T15:13:01.635Z,42.54
2023-09-23T15:15:28.772Z,42.46
2023-09-23T15:17:56.221Z,42.89
2023-09-23T15:20:23.457Z,43.37
2023-09-23T15:22:50.801Z,43.02
2023-09-23T15:25:18.029Z,43.76
2023-09-23T15:27:45.193Z,43.91
2023-09-23T15:30:17.073Z,43.42
2023-09-23T15:32:45.356Z,43.16
2023-09-23T15:35:12.742Z,43.65
2023-09-23T15:37:40.067Z,43.02
2023-09-23T15:40:10.739Z,41.55
2023-09-23T15:42:38.036Z,41.83
2023-09-23T15:45:05.488Z,42.01
2023-09-23T15:47:32.724Z,42.37
2023-09-23T15:49:59.861Z,42.64
2023-09-23T15:52:27.014Z,42.08
2023-09-23T15:54:57.099Z,42.28
2023-09-23T15:57:30.068Z,42.18
2023-09-23T15:59:58.424Z,41.95
2023-09-23T16:02:25.741Z,42.66
2023-09-23T16:04:53.191Z,43.30
2023-09-23T16:07:20.322Z,43.86
2023-09-23T16:09:47.474Z,44.08
2023-09-23T16:12:14.727Z,44.42
2023-09-23T16:14:42.475Z,44.56
2023-09-23T16:17:10.272Z,45.35
2023-09-23T16:19:38.526Z,45.66
2023-09-23T16:22:05.857Z,45.52
2023-09-23T16:24:33.178Z,44.67
2023-09-23T16:27:00.452Z,45.51
2023-09-23T16:29:27.748Z,45.92
2023-09-23T16:31:55.095Z,46.70
2023-09-23T16:34:22.401Z,47.32
2023-09-23T16:36:50.439Z,48.38
2023-09-23T16:39:17.810Z,49.61
2023-09-23T16:41:45.280Z,50.59
2023-09-23T16:44:12.656Z,51.33
2023-09-23T16:46:40.124Z,51.42
2023-09-23T16:49:07.728Z,51.32
2023-09-23T16:51:35.259Z,52.05
2023-09-23T16:54:02.817Z,52.30
2023-09-23T16:56:30.283Z,52.80
2023-09-23T16:58:57.699Z,53.24
2023-09-23T17:01:24.952Z,54.07
2023-09-23T17:03:52.340Z,54.72
2023-09-23T17:06:19.737Z,54.69
2023-09-23T17:08:47.298Z,55.55
2023-09-23T17:11:14.903Z,56.29
2023-09-23T17:13:42.312Z,57.08
2023-09-23T17:16:09.707Z,56.64
2023-09-23T17:18:37.140Z,57.41
2023-09-23T17:21:04.464Z,58.47
2023-09-23T17:23:32.337Z,59.66
2023-09-23T17:26:01.019Z,59.50
2023-09-23T17:28:28.834Z,60.19
2023-09-23T17:30:56.133Z,60.17
2023-09-23T17:33:23.470Z,60.33
2023-09-23T17:35:57.881Z,60.72
2023-09-23T17:38:25.473Z,61.95
2023-09-23T17:40:52.758Z,56.18
2023-09-23T17:43:20.837Z,54.97
2023-09-23T17:45:47.983Z,54.89
2023-09-23T17:48:15.397Z,55.18
2023-09-23T17:50:44.147Z,55.43
2023-09-23T17:53:11.788Z,55.80
2023-09-23T17:55:39.094Z,56.57
2023-09-23T17:58:09.279Z,57.03
2023-09-23T18:00:36.723Z,57.76
2023-09-23T18:03:04.126Z,57.13
2023-09-23T18:05:31.517Z,56.60
2023-09-23T18:08:00.493Z,56.46
2023-09-23T18:10:27.726Z,56.21
2023-09-23T18:12:54.839Z,56.64
2023-09-23T18:15:22.081Z,56.16
2023-09-23T18:17:49.332Z,56.30
2023-09-23T18:20:18.064Z,56.85
2023-09-23T18:22:46.421Z,55.25
2023-09-23T18:25:13.643Z,55.19
2023-09-23T18:27:40.925Z,55.83
2023-09-23T18:30:08.540Z,55.33
2023-09-23T18:32:35.766Z,55.08
2023-09-23T18:35:03.186Z,55.10
2023-09-23T18:37:30.413Z,55.51
2023-09-23T18:39:58.697Z,55.77
2023-09-23T18:42:25.991Z,55.54
2023-09-23T18:44:53.136Z,55.45
2023-09-23T18:47:20.392Z,53.94
2023-09-23T18:49:48.956Z,52.13
2023-09-23T18:52:16.869Z,52.64
2023-09-23T18:54:45.135Z,53.61
2023-09-23T18:57:15.218Z,52.68
2023-09-23T18:59:42.532Z,51.71
2023-09-23T19:02:09.980Z,51.61
2023-09-23T19:04:37.159Z,51.39
2023-09-23T19:07:04.434Z,50.99
2023-09-23T19:09:34.976Z,50.86
2023-09-23T19:12:02.194Z,51.25
2023-09-23T19:14:29.667Z,51.48
2023-09-23T19:16:56.906Z,53.00
2023-09-23T19:19:24.178Z,53.74
2023-09-23T19:21:51.550Z,54.83
2023-09-23T19:24:18.603Z,55.35
2023-09-23T19:26:56.320Z,57.32
2023-09-23T19:29:24.948Z,56.96
2023-09-23T19:31:52.067Z,58.93
2023-09-23T19:34:19.304Z,59.52
2023-09-23T19:36:46.526Z,60.44
2023-09-23T19:39:15.425Z,61.28
2023-09-23T19:41:42.837Z,60.31
2023-09-23T19:44:10.276Z,60.99
2023-09-23T19:46:37.643Z,63.71
2023-09-23T19:49:04.857Z,61.99
2023-09-23T19:51:32.322Z,62.30
2023-09-23T19:53:59.477Z,62.35
2023-09-23T19:56:26.839Z,63.46
2023-09-23T19:58:53.979Z,64.05
2023-09-23T20:01:22.820Z,62.47
2023-09-23T20:03:51.268Z,63.61
2023-09-23T20:06:19.769Z,63.83
2023-09-23T20:08:47.380Z,63.86
2023-09-23T20:11:15.234Z,65.07
2023-09-23T20:13:42.496Z,63.53
2023-09-23T20:16:09.819Z,64.68
2023-09-23T20:18:37.071Z,63.75
2023-09-23T20:21:04.179Z,63.42
2023-09-23T20:23:32.969Z,63.37
2023-09-23T20:26:00.992Z,61.69
2023-09-23T20:28:28.340Z,60.08
2023-09-23T20:30:58.900Z,63.10
2023-09-23T20:33:27.970Z,63.67
2023-09-23T20:35:58.225Z,65.10
2023-09-23T20:38:25.464Z,65.85
2023-09-23T20:41:03.173Z,67.78
2023-09-23T20:43:31.176Z,70.18
2023-09-23T20:45:58.490Z,70.22
2023-09-23T20:48:25.796Z,70.36
2023-09-23T20:50:53.001Z,71.61
2023-09-23T20:53:20.368Z,71.55
2023-09-23T20:55:47.723Z,71.59
2023-09-23T20:58:14.811Z,70.95
2023-09-23T21:00:42.366Z,71.64
2023-09-23T21:03:10.518Z,72.30
2023-09-23T21:05:37.891Z,71.88
2023-09-23T21:08:06.187Z,72.34
2023-09-23T21:10:33.696Z,72.72
2023-09-23T21:13:01.281Z,73.03
2023-09-23T21:15:29.353Z,72.51
2023-09-23T21:17:56.671Z,72.37
2023-09-23T21:20:23.932Z,72.14
2023-09-23T21:22:51.015Z,72.47
2023-09-23T21:25:18.404Z,71.98
2023-09-23T21:27:45.532Z,73.10
2023-09-23T21:30:12.783Z,71.24
2023-09-23T21:32:40.157Z,71.10
2023-09-23T21:35:07.596Z,71.33
2023-09-23T21:37:34.639Z,70.70
2023-09-23T21:40:02.155Z,70.18
2023-09-23T21:42:29.315Z,70.21
2023-09-23T21:44:56.633Z,71.83
2023-09-23T21:47:23.828Z,71.17
2023-09-23T21:49:51.072Z,72.08
2023-09-23T21:52:18.248Z,73.31
2023-09-23T21:54:45.497Z,72.89
2023-09-23T21:57:12.636Z,74.02
2023-09-23T21:59:40.097Z,74.67
2023-09-23T22:02:09.049Z,74.73
2023-09-23T22:04:36.666Z,72.90
2023-09-23T22:07:03.957Z,75.24
2023-09-23T22:09:31.213Z,76.86
2023-09-23T22:11:58.500Z,77.10
2023-09-23T22:14:27.828Z,78.02
2023-09-23T22:16:56.023Z,78.36
2023-09-23T22:19:23.855Z,78.90
2023-09-23T22:21:52.539Z,80.15
2023-09-23T22:24:22.797Z,81.24
2023-09-23T22:26:54.060Z,82.57
2023-09-23T22:29:21.666Z,82.85
2023-09-23T22:31:48.814Z,82.87
2023-09-23T22:34:16.066Z,82.59
2023-09-23T22:36:43.132Z,82.96
2023-09-23T22:39:13.489Z,84.26
2023-09-23T22:41:40.807Z,83.42
2023-09-23T22:44:08.261Z,82.82
2023-09-23T22:46:36.871Z,82.42
2023-09-23T22:49:04.321Z,83.48
2023-09-23T22:51:32.050Z,80.36
2023-09-23T22:54:00.251Z,80.67
2023-09-23T22:56:27.631Z,81.52
2023-09-23T22:58:55.754Z,82.06
2023-09-23T23:01:23.278Z,82.72
2023-09-23T23:03:51.605Z,83.19
2023-09-23T23:06:19.846Z,83.78
2023-09-23T23:08:47.276Z,83.58
2023-09-23T23:11:14.683Z,81.95
2023-09-23T23:13:41.941Z,83.36
2023-09-23T23:16:13.566Z,83.71
2023-09-23T23:18:41.182Z,85.48
2023-09-23T23:21:08.555Z,84.54
2023-09-23T23:23:35.990Z,82.47
2023-09-23T23:26:07.529Z,81.57
2023-09-23T23:28:35.553Z,83.16
2023-09-23T23:31:08.099Z,84.62
2023-09-23T23:33:35.856Z,85.14
2023-09-23T23:36:04.055Z,84.22
2023-09-23T23:38:34.432Z,83.94
2023-09-23T23:41:03.071Z,84.79
2023-09-23T23:43:30.473Z,85.18
2023-09-23T23:46:02.166Z,84.76
2023-09-23T23:48:33.526Z,84.95
2023-09-23T23:51:06.457Z,85.55
2023-09-23T23:53:34.550Z,85.71
2023-09-23T23:56:02.637Z,85.09
2023-09-23T23:58:30.017Z,84.15
